sensor_id;sensor_type;location;lat;lon;timestamp;P1;durP1;ratioP1;P2;durP2;ratioP2
23290;SDS011;11814;44.686;10.842;2023-08-17T00:00:00;13.43;;;9.25;;
23290;SDS011;11814;44.686;10.842;2023-08-17T00:02:28;11.95;;;8.85;;
23290;SDS011;11814;44.686;10.842;2023-08-17T00:04:53;16.08;;;9.88;;
23290;SDS011;11814;44.686;10.842;2023-08-17T00:07:19;10.60;;;8.82;;
23290;SDS011;11814;44.686;10.842;2023-08-17T00:09:45;15.45;;;10.23;;
23290;SDS011;11814;44.686;10.842;2023-08-17T00:12:11;10.60;;;9.38;;
23290;SDS011;11814;44.686;10.842;2023-08-17T00:14:36;13.95;;;10.27;;
23290;SDS011;11814;44.686;10.842;2023-08-17T00:17:02;12.15;;;10.57;;
23290;SDS011;11814;44.686;10.842;2023-08-17T00:19:28;13.82;;;9.98;;
23290;SDS011;11814;44.686;10.842;2023-08-17T00:21:54;11.55;;;10.35;;
23290;SDS011;11814;44.686;10.842;2023-08-17T00:24:20;11.40;;;10.30;;
23290;SDS011;11814;44.686;10.842;2023-08-17T00:26:46;13.13;;;11.00;;
23290;SDS011;11814;44.686;10.842;2023-08-17T00:29:11;12.30;;;10.48;;
23290;SDS011;11814;44.686;10.842;2023-08-17T00:31:37;12.38;;;11.20;;
23290;SDS011;11814;44.686;10.842;2023-08-17T00:34:03;12.20;;;10.93;;
23290;SDS011;11814;44.686;10.842;2023-08-17T00:36:28;11.48;;;10.48;;
23290;SDS011;11814;44.686;10.842;2023-08-17T00:38:54;13.30;;;10.70;;
23290;SDS011;11814;44.686;10.842;2023-08-17T00:41:20;11.55;;;10.55;;
23290;SDS011;11814;44.686;10.842;2023-08-17T00:43:45;15.90;;;10.77;;
23290;SDS011;11814;44.686;10.842;2023-08-17T00:46:11;14.15;;;10.77;;
23290;SDS011;11814;44.686;10.842;2023-08-17T00:48:37;11.85;;;10.55;;
23290;SDS011;11814;44.686;10.842;2023-08-17T00:51:03;12.20;;;11.00;;
23290;SDS011;11814;44.686;10.842;2023-08-17T00:53:30;12.18;;;10.98;;
23290;SDS011;11814;44.686;10.842;2023-08-17T00:55:57;12.63;;;11.43;;
23290;SDS011;11814;44.686;10.842;2023-08-17T00:58:24;12.07;;;10.98;;
23290;SDS011;11814;44.686;10.842;2023-08-17T01:00:50;12.82;;;11.52;;
23290;SDS011;11814;44.686;10.842;2023-08-17T01:03:16;13.00;;;11.80;;
23290;SDS011;11814;44.686;10.842;2023-08-17T01:05:42;14.63;;;12.57;;
23290;SDS011;11814;44.686;10.842;2023-08-17T01:08:08;12.90;;;11.70;;
23290;SDS011;11814;44.686;10.842;2023-08-17T01:10:41;15.35;;;13.65;;
23290;SDS011;11814;44.686;10.842;2023-08-17T01:13:18;15.20;;;13.60;;
23290;SDS011;11814;44.686;10.842;2023-08-17T01:15:58;14.85;;;13.10;;
23290;SDS011;11814;44.686;10.842;2023-08-17T01:18:31;15.75;;;14.10;;
23290;SDS011;11814;44.686;10.842;2023-08-17T01:21:01;15.43;;;13.93;;
23290;SDS011;11814;44.686;10.842;2023-08-17T01:23:30;15.57;;;13.95;;
23290;SDS011;11814;44.686;10.842;2023-08-17T01:25:56;18.80;;;13.57;;
23290;SDS011;11814;44.686;10.842;2023-08-17T01:28:22;17.58;;;13.95;;
23290;SDS011;11814;44.686;10.842;2023-08-17T01:33:30;16.92;;;15.18;;
23290;SDS011;11814;44.686;10.842;2023-08-17T01:38:45;16.45;;;14.70;;
23290;SDS011;11814;44.686;10.842;2023-08-17T01:41:12;15.98;;;14.50;;
23290;SDS011;11814;44.686;10.842;2023-08-17T01:43:44;16.73;;;15.02;;
23290;SDS011;11814;44.686;10.842;2023-08-17T01:46:14;18.60;;;16.80;;
23290;SDS011;11814;44.686;10.842;2023-08-17T01:48:41;20.27;;;18.17;;
23290;SDS011;11814;44.686;10.842;2023-08-17T01:51:07;20.17;;;16.75;;
23290;SDS011;11814;44.686;10.842;2023-08-17T01:53:33;20.13;;;17.02;;
23290;SDS011;11814;44.686;10.842;2023-08-17T01:55:59;19.70;;;17.77;;
23290;SDS011;11814;44.686;10.842;2023-08-17T01:58:24;18.45;;;16.50;;
23290;SDS011;11814;44.686;10.842;2023-08-17T02:00:50;20.27;;;18.20;;
23290;SDS011;11814;44.686;10.842;2023-08-17T02:03:16;23.05;;;17.30;;
23290;SDS011;11814;44.686;10.842;2023-08-17T02:05:45;19.80;;;17.40;;
23290;SDS011;11814;44.686;10.842;2023-08-17T02:08:11;19.75;;;17.67;;
23290;SDS011;11814;44.686;10.842;2023-08-17T02:10:37;20.30;;;18.23;;
23290;SDS011;11814;44.686;10.842;2023-08-17T02:13:03;19.50;;;17.50;;
23290;SDS011;11814;44.686;10.842;2023-08-17T02:15:29;21.30;;;19.10;;
23290;SDS011;11814;44.686;10.842;2023-08-17T02:17:54;20.98;;;19.00;;
23290;SDS011;11814;44.686;10.842;2023-08-17T02:20:21;19.48;;;17.58;;
23290;SDS011;11814;44.686;10.842;2023-08-17T02:22:47;20.20;;;18.02;;
23290;SDS011;11814;44.686;10.842;2023-08-17T02:25:13;21.58;;;18.27;;
23290;SDS011;11814;44.686;10.842;2023-08-17T02:27:38;20.58;;;18.38;;
23290;SDS011;11814;44.686;10.842;2023-08-17T02:30:04;22.38;;;19.17;;
23290;SDS011;11814;44.686;10.842;2023-08-17T02:32:30;23.30;;;19.92;;
23290;SDS011;11814;44.686;10.842;2023-08-17T02:34:56;21.73;;;19.63;;
23290;SDS011;11814;44.686;10.842;2023-08-17T02:37:21;22.83;;;20.35;;
23290;SDS011;11814;44.686;10.842;2023-08-17T02:39:47;24.33;;;22.02;;
23290;SDS011;11814;44.686;10.842;2023-08-17T02:42:13;23.42;;;21.02;;
23290;SDS011;11814;44.686;10.842;2023-08-17T02:44:38;24.40;;;20.92;;
23290;SDS011;11814;44.686;10.842;2023-08-17T02:47:04;24.35;;;22.15;;
23290;SDS011;11814;44.686;10.842;2023-08-17T02:49:30;24.23;;;21.95;;
23290;SDS011;11814;44.686;10.842;2023-08-17T02:51:55;24.40;;;20.88;;
23290;SDS011;11814;44.686;10.842;2023-08-17T02:54:21;22.15;;;19.95;;
23290;SDS011;11814;44.686;10.842;2023-08-17T02:56:47;22.60;;;20.25;;
23290;SDS011;11814;44.686;10.842;2023-08-17T02:59:13;25.00;;;22.60;;
23290;SDS011;11814;44.686;10.842;2023-08-17T03:01:38;24.17;;;21.63;;
23290;SDS011;11814;44.686;10.842;2023-08-17T03:04:04;25.10;;;22.42;;
23290;SDS011;11814;44.686;10.842;2023-08-17T03:06:30;25.17;;;22.60;;
23290;SDS011;11814;44.686;10.842;2023-08-17T03:08:55;24.17;;;21.25;;
23290;SDS011;11814;44.686;10.842;2023-08-17T03:11:21;22.98;;;20.85;;
23290;SDS011;11814;44.686;10.842;2023-08-17T03:13:47;29.50;;;21.25;;
23290;SDS011;11814;44.686;10.842;2023-08-17T03:16:13;24.20;;;21.73;;
23290;SDS011;11814;44.686;10.842;2023-08-17T03:18:40;23.98;;;21.70;;
23290;SDS011;11814;44.686;10.842;2023-08-17T03:21:06;24.33;;;21.90;;
23290;SDS011;11814;44.686;10.842;2023-08-17T03:23:32;24.10;;;21.85;;
23290;SDS011;11814;44.686;10.842;2023-08-17T03:25:58;24.63;;;22.13;;
23290;SDS011;11814;44.686;10.842;2023-08-17T03:28:24;23.90;;;21.67;;
23290;SDS011;11814;44.686;10.842;2023-08-17T03:30:54;25.25;;;21.52;;
23290;SDS011;11814;44.686;10.842;2023-08-17T03:33:20;24.50;;;21.30;;
23290;SDS011;11814;44.686;10.842;2023-08-17T03:35:46;23.95;;;21.38;;
23290;SDS011;11814;44.686;10.842;2023-08-17T03:38:12;25.40;;;22.50;;
23290;SDS011;11814;44.686;10.842;2023-08-17T03:40:38;27.85;;;23.13;;
23290;SDS011;11814;44.686;10.842;2023-08-17T03:43:04;25.23;;;22.52;;
23290;SDS011;11814;44.686;10.842;2023-08-17T03:45:29;25.38;;;22.88;;
23290;SDS011;11814;44.686;10.842;2023-08-17T03:47:56;29.05;;;22.30;;
23290;SDS011;11814;44.686;10.842;2023-08-17T03:50:21;25.50;;;23.00;;
23290;SDS011;11814;44.686;10.842;2023-08-17T03:52:47;25.65;;;23.05;;
23290;SDS011;11814;44.686;10.842;2023-08-17T03:55:13;28.00;;;25.10;;
23290;SDS011;11814;44.686;10.842;2023-08-17T03:57:38;26.10;;;23.67;;
23290;SDS011;11814;44.686;10.842;2023-08-17T04:00:04;26.65;;;24.17;;
23290;SDS011;11814;44.686;10.842;2023-08-17T04:02:31;25.73;;;22.90;;
23290;SDS011;11814;44.686;10.842;2023-08-17T04:04:57;25.05;;;22.55;;
23290;SDS011;11814;44.686;10.842;2023-08-17T04:07:22;25.35;;;23.08;;
23290;SDS011;11814;44.686;10.842;2023-08-17T04:09:48;25.40;;;22.95;;
23290;SDS011;11814;44.686;10.842;2023-08-17T04:12:14;26.13;;;23.60;;
23290;SDS011;11814;44.686;10.842;2023-08-17T04:14:40;26.60;;;24.10;;
23290;SDS011;11814;44.686;10.842;2023-08-17T04:17:06;26.00;;;23.50;;
23290;SDS011;11814;44.686;10.842;2023-08-17T04:19:31;25.83;;;23.38;;
23290;SDS011;11814;44.686;10.842;2023-08-17T04:21:57;24.95;;;22.55;;
23290;SDS011;11814;44.686;10.842;2023-08-17T04:24:23;25.98;;;23.20;;
23290;SDS011;11814;44.686;10.842;2023-08-17T04:26:49;24.65;;;22.35;;
23290;SDS011;11814;44.686;10.842;2023-08-17T04:29:14;23.80;;;21.30;;
23290;SDS011;11814;44.686;10.842;2023-08-17T04:31:40;24.02;;;21.52;;
23290;SDS011;11814;44.686;10.842;2023-08-17T04:34:06;26.77;;;23.00;;
23290;SDS011;11814;44.686;10.842;2023-08-17T04:36:32;25.80;;;23.20;;
23290;SDS011;11814;44.686;10.842;2023-08-17T04:38:57;24.75;;;22.17;;
23290;SDS011;11814;44.686;10.842;2023-08-17T04:41:23;28.52;;;22.77;;
23290;SDS011;11814;44.686;10.842;2023-08-17T04:43:49;24.52;;;22.05;;
23290;SDS011;11814;44.686;10.842;2023-08-17T04:46:14;25.15;;;22.83;;
23290;SDS011;11814;44.686;10.842;2023-08-17T04:48:40;25.00;;;22.65;;
23290;SDS011;11814;44.686;10.842;2023-08-17T04:51:06;25.35;;;22.70;;
23290;SDS011;11814;44.686;10.842;2023-08-17T04:53:32;23.70;;;21.30;;
23290;SDS011;11814;44.686;10.842;2023-08-17T04:55:58;24.73;;;22.13;;
23290;SDS011;11814;44.686;10.842;2023-08-17T04:58:24;22.90;;;20.52;;
23290;SDS011;11814;44.686;10.842;2023-08-17T05:00:50;24.50;;;21.90;;
23290;SDS011;11814;44.686;10.842;2023-08-17T05:03:16;25.27;;;22.65;;
23290;SDS011;11814;44.686;10.842;2023-08-17T05:05:42;23.77;;;21.27;;
23290;SDS011;11814;44.686;10.842;2023-08-17T05:08:07;22.05;;;19.90;;
23290;SDS011;11814;44.686;10.842;2023-08-17T05:10:33;22.83;;;20.52;;
23290;SDS011;11814;44.686;10.842;2023-08-17T05:12:59;24.52;;;19.52;;
23290;SDS011;11814;44.686;10.842;2023-08-17T05:15:24;21.95;;;19.60;;
23290;SDS011;11814;44.686;10.842;2023-08-17T05:17:50;22.05;;;19.70;;
23290;SDS011;11814;44.686;10.842;2023-08-17T05:20:16;23.25;;;19.23;;
23290;SDS011;11814;44.686;10.842;2023-08-17T05:22:42;20.67;;;18.25;;
23290;SDS011;11814;44.686;10.842;2023-08-17T05:25:08;18.95;;;16.92;;
23290;SDS011;11814;44.686;10.842;2023-08-17T05:27:33;17.00;;;15.18;;
23290;SDS011;11814;44.686;10.842;2023-08-17T05:29:59;16.23;;;14.73;;
23290;SDS011;11814;44.686;10.842;2023-08-17T05:32:25;16.25;;;14.70;;
23290;SDS011;11814;44.686;10.842;2023-08-17T05:34:51;18.23;;;15.10;;
23290;SDS011;11814;44.686;10.842;2023-08-17T05:37:16;16.50;;;14.90;;
23290;SDS011;11814;44.686;10.842;2023-08-17T05:39:43;15.65;;;14.15;;
23290;SDS011;11814;44.686;10.842;2023-08-17T05:42:08;15.50;;;14.00;;
23290;SDS011;11814;44.686;10.842;2023-08-17T05:44:35;15.40;;;13.90;;
23290;SDS011;11814;44.686;10.842;2023-08-17T05:47:00;15.25;;;13.73;;
23290;SDS011;11814;44.686;10.842;2023-08-17T05:49:26;15.20;;;13.63;;
23290;SDS011;11814;44.686;10.842;2023-08-17T05:51:52;14.00;;;12.70;;
23290;SDS011;11814;44.686;10.842;2023-08-17T05:54:18;13.73;;;12.45;;
23290;SDS011;11814;44.686;10.842;2023-08-17T05:56:43;13.80;;;12.38;;
23290;SDS011;11814;44.686;10.842;2023-08-17T05:59:12;14.55;;;13.07;;
23290;SDS011;11814;44.686;10.842;2023-08-17T06:01:39;15.07;;;13.35;;
23290;SDS011;11814;44.686;10.842;2023-08-17T06:04:05;18.48;;;13.00;;
23290;SDS011;11814;44.686;10.842;2023-08-17T06:06:31;15.40;;;12.95;;
23290;SDS011;11814;44.686;10.842;2023-08-17T06:08:57;14.70;;;12.65;;
23290;SDS011;11814;44.686;10.842;2023-08-17T06:11:22;16.38;;;11.32;;
23290;SDS011;11814;44.686;10.842;2023-08-17T06:13:49;12.50;;;11.20;;
23290;SDS011;11814;44.686;10.842;2023-08-17T06:16:15;14.02;;;11.40;;
23290;SDS011;11814;44.686;10.842;2023-08-17T06:18:41;11.73;;;10.57;;
23290;SDS011;11814;44.686;10.842;2023-08-17T06:21:07;14.30;;;10.98;;
23290;SDS011;11814;44.686;10.842;2023-08-17T06:23:33;14.32;;;11.05;;
23290;SDS011;11814;44.686;10.842;2023-08-17T06:25:59;19.55;;;11.52;;
23290;SDS011;11814;44.686;10.842;2023-08-17T06:28:25;20.90;;;12.40;;
23290;SDS011;11814;44.686;10.842;2023-08-17T06:30:52;19.30;;;12.00;;
23290;SDS011;11814;44.686;10.842;2023-08-17T06:33:18;20.08;;;12.55;;
23290;SDS011;11814;44.686;10.842;2023-08-17T06:35:44;18.13;;;12.13;;
23290;SDS011;11814;44.686;10.842;2023-08-17T06:38:10;14.63;;;12.90;;
23290;SDS011;11814;44.686;10.842;2023-08-17T06:40:35;21.90;;;11.55;;
23290;SDS011;11814;44.686;10.842;2023-08-17T06:43:01;16.65;;;10.85;;
23290;SDS011;11814;44.686;10.842;2023-08-17T06:45:27;15.02;;;11.43;;
23290;SDS011;11814;44.686;10.842;2023-08-17T06:47:53;12.38;;;10.27;;
23290;SDS011;11814;44.686;10.842;2023-08-17T06:50:18;13.13;;;10.55;;
23290;SDS011;11814;44.686;10.842;2023-08-17T06:52:44;12.32;;;10.88;;
23290;SDS011;11814;44.686;10.842;2023-08-17T06:55:09;26.92;;;11.10;;
23290;SDS011;11814;44.686;10.842;2023-08-17T06:57:35;12.23;;;10.43;;
23290;SDS011;11814;44.686;10.842;2023-08-17T07:00:01;12.07;;;10.10;;
23290;SDS011;11814;44.686;10.842;2023-08-17T07:02:30;11.80;;;9.63;;
23290;SDS011;11814;44.686;10.842;2023-08-17T07:04:56;12.45;;;10.48;;
23290;SDS011;11814;44.686;10.842;2023-08-17T07:07:22;18.85;;;12.55;;
23290;SDS011;11814;44.686;10.842;2023-08-17T07:09:47;17.45;;;13.27;;
23290;SDS011;11814;44.686;10.842;2023-08-17T07:12:13;18.27;;;13.27;;
23290;SDS011;11814;44.686;10.842;2023-08-17T07:14:39;15.90;;;13.63;;
23290;SDS011;11814;44.686;10.842;2023-08-17T07:17:04;15.40;;;13.68;;
23290;SDS011;11814;44.686;10.842;2023-08-17T07:19:30;15.02;;;12.48;;
23290;SDS011;11814;44.686;10.842;2023-08-17T07:21:56;20.45;;;13.13;;
23290;SDS011;11814;44.686;10.842;2023-08-17T07:24:21;13.68;;;12.25;;
23290;SDS011;11814;44.686;10.842;2023-08-17T07:26:47;14.55;;;12.90;;
23290;SDS011;11814;44.686;10.842;2023-08-17T07:29:12;12.45;;;11.10;;
23290;SDS011;11814;44.686;10.842;2023-08-17T07:31:38;12.48;;;11.18;;
23290;SDS011;11814;44.686;10.842;2023-08-17T07:34:05;16.25;;;13.02;;
23290;SDS011;11814;44.686;10.842;2023-08-17T07:36:31;23.33;;;13.02;;
23290;SDS011;11814;44.686;10.842;2023-08-17T07:38:57;27.00;;;12.48;;
23290;SDS011;11814;44.686;10.842;2023-08-17T07:41:23;15.60;;;12.82;;
23290;SDS011;11814;44.686;10.842;2023-08-17T07:43:49;15.65;;;12.68;;
23290;SDS011;11814;44.686;10.842;2023-08-17T07:46:14;16.27;;;13.48;;
23290;SDS011;11814;44.686;10.842;2023-08-17T07:48:40;16.42;;;13.68;;
23290;SDS011;11814;44.686;10.842;2023-08-17T07:51:06;19.85;;;13.35;;
23290;SDS011;11814;44.686;10.842;2023-08-17T07:53:31;23.10;;;13.57;;
23290;SDS011;11814;44.686;10.842;2023-08-17T07:55:57;21.50;;;14.10;;
23290;SDS011;11814;44.686;10.842;2023-08-17T07:58:23;19.08;;;12.75;;
23290;SDS011;11814;44.686;10.842;2023-08-17T08:00:48;22.80;;;14.10;;
23290;SDS011;11814;44.686;10.842;2023-08-17T08:03:14;19.15;;;13.75;;
23290;SDS011;11814;44.686;10.842;2023-08-17T08:05:40;16.15;;;12.95;;
23290;SDS011;11814;44.686;10.842;2023-08-17T08:11:28;19.67;;;12.45;;
23290;SDS011;11814;44.686;10.842;2023-08-17T08:13:55;13.38;;;10.77;;
23290;SDS011;11814;44.686;10.842;2023-08-17T08:16:22;18.02;;;10.93;;
23290;SDS011;11814;44.686;10.842;2023-08-17T08:18:47;22.48;;;12.15;;
23290;SDS011;11814;44.686;10.842;2023-08-17T08:21:13;15.88;;;10.35;;
23290;SDS011;11814;44.686;10.842;2023-08-17T08:23:38;15.20;;;11.25;;
23290;SDS011;11814;44.686;10.842;2023-08-17T08:26:04;18.73;;;11.75;;
23290;SDS011;11814;44.686;10.842;2023-08-17T08:28:30;13.88;;;10.07;;
23290;SDS011;11814;44.686;10.842;2023-08-17T08:31:00;15.23;;;9.05;;
23290;SDS011;11814;44.686;10.842;2023-08-17T08:33:27;17.42;;;11.10;;
23290;SDS011;11814;44.686;10.842;2023-08-17T08:35:53;11.18;;;9.85;;
23290;SDS011;11814;44.686;10.842;2023-08-17T08:38:19;11.20;;;9.70;;
23290;SDS011;11814;44.686;10.842;2023-08-17T08:40:44;12.07;;;9.93;;
23290;SDS011;11814;44.686;10.842;2023-08-17T08:43:12;21.50;;;10.85;;
23290;SDS011;11814;44.686;10.842;2023-08-17T08:45:41;15.73;;;9.68;;
23290;SDS011;11814;44.686;10.842;2023-08-17T08:48:09;15.77;;;9.90;;
23290;SDS011;11814;44.686;10.842;2023-08-17T08:50:36;10.00;;;7.20;;
23290;SDS011;11814;44.686;10.842;2023-08-17T08:53:11;14.18;;;9.43;;
23290;SDS011;11814;44.686;10.842;2023-08-17T08:55:41;11.52;;;8.60;;
23290;SDS011;11814;44.686;10.842;2023-08-17T08:58:16;17.58;;;7.63;;
23290;SDS011;11814;44.686;10.842;2023-08-17T09:00:42;10.57;;;7.57;;
23290;SDS011;11814;44.686;10.842;2023-08-17T09:03:10;13.70;;;8.60;;
23290;SDS011;11814;44.686;10.842;2023-08-17T09:05:37;22.70;;;13.05;;
23290;SDS011;11814;44.686;10.842;2023-08-17T09:08:03;11.27;;;8.85;;
23290;SDS011;11814;44.686;10.842;2023-08-17T09:10:30;13.02;;;8.68;;
23290;SDS011;11814;44.686;10.842;2023-08-17T09:12:56;10.38;;;8.45;;
23290;SDS011;11814;44.686;10.842;2023-08-17T09:15:22;14.05;;;9.68;;
23290;SDS011;11814;44.686;10.842;2023-08-17T09:17:47;19.73;;;9.63;;
23290;SDS011;11814;44.686;10.842;2023-08-17T09:20:34;12.50;;;9.70;;
23290;SDS011;11814;44.686;10.842;2023-08-17T09:23:10;11.57;;;9.13;;
23290;SDS011;11814;44.686;10.842;2023-08-17T09:25:46;16.17;;;9.52;;
23290;SDS011;11814;44.686;10.842;2023-08-17T09:28:13;12.48;;;9.80;;
23290;SDS011;11814;44.686;10.842;2023-08-17T09:30:53;15.35;;;10.02;;
23290;SDS011;11814;44.686;10.842;2023-08-17T09:33:24;16.30;;;10.23;;
23290;SDS011;11814;44.686;10.842;2023-08-17T09:35:52;17.10;;;9.80;;
23290;SDS011;11814;44.686;10.842;2023-08-17T09:38:19;14.65;;;9.77;;
23290;SDS011;11814;44.686;10.842;2023-08-17T09:40:45;11.68;;;9.18;;
23290;SDS011;11814;44.686;10.842;2023-08-17T09:43:12;13.27;;;8.90;;
23290;SDS011;11814;44.686;10.842;2023-08-17T09:45:39;10.30;;;8.52;;
23290;SDS011;11814;44.686;10.842;2023-08-17T09:48:08;13.27;;;7.97;;
23290;SDS011;11814;44.686;10.842;2023-08-17T09:50:34;11.20;;;9.48;;
23290;SDS011;11814;44.686;10.842;2023-08-17T09:53:01;10.65;;;8.65;;
23290;SDS011;11814;44.686;10.842;2023-08-17T09:55:29;11.50;;;8.02;;
23290;SDS011;11814;44.686;10.842;2023-08-17T09:57:57;12.05;;;7.82;;
23290;SDS011;11814;44.686;10.842;2023-08-17T10:00:23;13.63;;;8.52;;
23290;SDS011;11814;44.686;10.842;2023-08-17T10:02:51;14.18;;;9.50;;
23290;SDS011;11814;44.686;10.842;2023-08-17T10:05:18;13.52;;;8.18;;
23290;SDS011;11814;44.686;10.842;2023-08-17T10:07:51;12.20;;;8.40;;
23290;SDS011;11814;44.686;10.842;2023-08-17T10:10:23;13.80;;;8.30;;
23290;SDS011;11814;44.686;10.842;2023-08-17T10:13:05;14.88;;;8.27;;
23290;SDS011;11814;44.686;10.842;2023-08-17T10:15:37;9.43;;;7.40;;
23290;SDS011;11814;44.686;10.842;2023-08-17T10:18:15;10.20;;;8.32;;
23290;SDS011;11814;44.686;10.842;2023-08-17T10:20:54;11.80;;;7.97;;
23290;SDS011;11814;44.686;10.842;2023-08-17T10:23:30;14.57;;;8.65;;
23290;SDS011;11814;44.686;10.842;2023-08-17T10:25:56;12.57;;;7.95;;
23290;SDS011;11814;44.686;10.842;2023-08-17T10:28:22;16.17;;;8.65;;
23290;SDS011;11814;44.686;10.842;2023-08-17T10:30:49;12.88;;;8.10;;
23290;SDS011;11814;44.686;10.842;2023-08-17T10:33:16;14.75;;;9.30;;
23290;SDS011;11814;44.686;10.842;2023-08-17T10:35:42;9.43;;;7.75;;
23290;SDS011;11814;44.686;10.842;2023-08-17T10:38:09;9.32;;;7.55;;
23290;SDS011;11814;44.686;10.842;2023-08-17T10:40:36;12.95;;;9.05;;
23290;SDS011;11814;44.686;10.842;2023-08-17T10:43:06;13.68;;;7.85;;
23290;SDS011;11814;44.686;10.842;2023-08-17T10:45:33;15.43;;;7.60;;
23290;SDS011;11814;44.686;10.842;2023-08-17T10:50:34;13.43;;;8.65;;
23290;SDS011;11814;44.686;10.842;2023-08-17T10:53:08;10.80;;;8.20;;
23290;SDS011;11814;44.686;10.842;2023-08-17T10:55:40;11.93;;;7.50;;
23290;SDS011;11814;44.686;10.842;2023-08-17T10:58:07;10.95;;;7.68;;
23290;SDS011;11814;44.686;10.842;2023-08-17T11:00:36;10.05;;;6.82;;
23290;SDS011;11814;44.686;10.842;2023-08-17T11:03:07;9.65;;;6.90;;
23290;SDS011;11814;44.686;10.842;2023-08-17T11:05:46;8.55;;;6.85;;
23290;SDS011;11814;44.686;10.842;2023-08-17T11:08:28;10.98;;;7.60;;
23290;SDS011;11814;44.686;10.842;2023-08-17T11:11:03;8.77;;;7.40;;
23290;SDS011;11814;44.686;10.842;2023-08-17T11:13:31;9.85;;;6.97;;
23290;SDS011;11814;44.686;10.842;2023-08-17T11:15:58;11.82;;;7.18;;
23290;SDS011;11814;44.686;10.842;2023-08-17T11:18:26;11.82;;;7.32;;
23290;SDS011;11814;44.686;10.842;2023-08-17T11:20:52;8.63;;;7.43;;
23290;SDS011;11814;44.686;10.842;2023-08-17T11:23:19;9.27;;;7.38;;
23290;SDS011;11814;44.686;10.842;2023-08-17T11:25:44;11.00;;;6.75;;
23290;SDS011;11814;44.686;10.842;2023-08-17T11:28:10;12.85;;;7.50;;
23290;SDS011;11814;44.686;10.842;2023-08-17T11:30:36;8.95;;;7.10;;
23290;SDS011;11814;44.686;10.842;2023-08-17T11:33:04;10.25;;;8.07;;
23290;SDS011;11814;44.686;10.842;2023-08-17T11:35:30;11.27;;;7.75;;
23290;SDS011;11814;44.686;10.842;2023-08-17T11:37:56;11.93;;;7.40;;
23290;SDS011;11814;44.686;10.842;2023-08-17T11:40:22;12.57;;;7.40;;
23290;SDS011;11814;44.686;10.842;2023-08-17T11:42:48;9.30;;;7.10;;
23290;SDS011;11814;44.686;10.842;2023-08-17T11:45:14;8.68;;;6.72;;
23290;SDS011;11814;44.686;10.842;2023-08-17T11:47:40;8.38;;;7.50;;
23290;SDS011;11814;44.686;10.842;2023-08-17T11:50:08;12.63;;;7.53;;
23290;SDS011;11814;44.686;10.842;2023-08-17T11:52:35;11.40;;;8.13;;
23290;SDS011;11814;44.686;10.842;2023-08-17T11:55:02;9.57;;;7.25;;
23290;SDS011;11814;44.686;10.842;2023-08-17T11:57:30;12.88;;;8.00;;
23290;SDS011;11814;44.686;10.842;2023-08-17T11:59:57;9.65;;;7.57;;
23290;SDS011;11814;44.686;10.842;2023-08-17T12:02:25;15.75;;;8.40;;
23290;SDS011;11814;44.686;10.842;2023-08-17T12:04:53;11.35;;;8.00;;
23290;SDS011;11814;44.686;10.842;2023-08-17T12:07:20;14.32;;;7.15;;
23290;SDS011;11814;44.686;10.842;2023-08-17T12:09:47;10.70;;;7.00;;
23290;SDS011;11814;44.686;10.842;2023-08-17T12:12:16;10.82;;;7.60;;
23290;SDS011;11814;44.686;10.842;2023-08-17T12:14:43;10.88;;;7.78;;
23290;SDS011;11814;44.686;10.842;2023-08-17T12:17:14;8.88;;;7.13;;
23290;SDS011;11814;44.686;10.842;2023-08-17T12:19:43;8.15;;;7.00;;
23290;SDS011;11814;44.686;10.842;2023-08-17T12:22:10;10.05;;;6.93;;
23290;SDS011;11814;44.686;10.842;2023-08-17T12:24:37;8.60;;;7.55;;
23290;SDS011;11814;44.686;10.842;2023-08-17T12:27:04;11.65;;;7.30;;
23290;SDS011;11814;44.686;10.842;2023-08-17T12:29:30;9.77;;;7.43;;
23290;SDS011;11814;44.686;10.842;2023-08-17T12:31:56;13.32;;;7.68;;
23290;SDS011;11814;44.686;10.842;2023-08-17T12:34:23;7.82;;;7.13;;
23290;SDS011;11814;44.686;10.842;2023-08-17T12:36:49;11.30;;;7.32;;
23290;SDS011;11814;44.686;10.842;2023-08-17T12:39:15;11.98;;;8.20;;
23290;SDS011;11814;44.686;10.842;2023-08-17T12:41:41;9.07;;;7.30;;
23290;SDS011;11814;44.686;10.842;2023-08-17T12:44:08;13.88;;;7.50;;
23290;SDS011;11814;44.686;10.842;2023-08-17T12:46:38;9.18;;;7.25;;
23290;SDS011;11814;44.686;10.842;2023-08-17T12:49:04;10.25;;;6.80;;
23290;SDS011;11814;44.686;10.842;2023-08-17T12:51:30;9.07;;;7.10;;
23290;SDS011;11814;44.686;10.842;2023-08-17T12:53:55;12.68;;;7.70;;
23290;SDS011;11814;44.686;10.842;2023-08-17T12:56:21;9.73;;;7.75;;
23290;SDS011;11814;44.686;10.842;2023-08-17T12:58:47;11.43;;;8.35;;
23290;SDS011;11814;44.686;10.842;2023-08-17T13:01:12;12.82;;;8.38;;
23290;SDS011;11814;44.686;10.842;2023-08-17T13:03:39;9.65;;;8.48;;
23290;SDS011;11814;44.686;10.842;2023-08-17T13:06:04;9.52;;;8.20;;
23290;SDS011;11814;44.686;10.842;2023-08-17T13:08:30;9.55;;;8.00;;
23290;SDS011;11814;44.686;10.842;2023-08-17T13:10:56;15.98;;;7.35;;
23290;SDS011;11814;44.686;10.842;2023-08-17T13:13:21;9.73;;;7.55;;
23290;SDS011;11814;44.686;10.842;2023-08-17T13:15:47;10.80;;;7.60;;
23290;SDS011;11814;44.686;10.842;2023-08-17T13:18:13;12.02;;;8.05;;
23290;SDS011;11814;44.686;10.842;2023-08-17T13:20:38;13.13;;;8.48;;
23290;SDS011;11814;44.686;10.842;2023-08-17T13:23:05;9.88;;;8.23;;
23290;SDS011;11814;44.686;10.842;2023-08-17T13:25:31;9.20;;;7.50;;
23290;SDS011;11814;44.686;10.842;2023-08-17T13:27:57;9.45;;;7.53;;
23290;SDS011;11814;44.686;10.842;2023-08-17T13:30:22;9.35;;;7.10;;
23290;SDS011;11814;44.686;10.842;2023-08-17T13:32:48;8.82;;;7.82;;
23290;SDS011;11814;44.686;10.842;2023-08-17T13:35:14;8.77;;;7.80;;
23290;SDS011;11814;44.686;10.842;2023-08-17T13:37:40;9.68;;;7.47;;
23290;SDS011;11814;44.686;10.842;2023-08-17T13:40:06;10.45;;;8.55;;
23290;SDS011;11814;44.686;10.842;2023-08-17T13:42:32;13.00;;;8.40;;
23290;SDS011;11814;44.686;10.842;2023-08-17T13:44:58;15.05;;;8.15;;
23290;SDS011;11814;44.686;10.842;2023-08-17T13:47:25;8.60;;;7.13;;
23290;SDS011;11814;44.686;10.842;2023-08-17T13:49:51;11.95;;;7.68;;
23290;SDS011;11814;44.686;10.842;2023-08-17T13:52:16;11.80;;;6.95;;
23290;SDS011;11814;44.686;10.842;2023-08-17T13:54:42;9.45;;;6.97;;
23290;SDS011;11814;44.686;10.842;2023-08-17T13:57:08;9.60;;;7.75;;
23290;SDS011;11814;44.686;10.842;2023-08-17T13:59:34;9.63;;;7.32;;
23290;SDS011;11814;44.686;10.842;2023-08-17T14:01:59;9.68;;;7.63;;
23290;SDS011;11814;44.686;10.842;2023-08-17T14:04:25;10.30;;;7.45;;
23290;SDS011;11814;44.686;10.842;2023-08-17T14:06:51;11.27;;;7.80;;
23290;SDS011;11814;44.686;10.842;2023-08-17T14:09:17;11.43;;;7.47;;
23290;SDS011;11814;44.686;10.842;2023-08-17T14:11:43;16.25;;;7.28;;
23290;SDS011;11814;44.686;10.842;2023-08-17T14:14:08;9.55;;;7.05;;
23290;SDS011;11814;44.686;10.842;2023-08-17T14:16:34;9.27;;;7.63;;
23290;SDS011;11814;44.686;10.842;2023-08-17T14:19:00;10.85;;;7.13;;
23290;SDS011;11814;44.686;10.842;2023-08-17T14:21:26;9.32;;;6.90;;
23290;SDS011;11814;44.686;10.842;2023-08-17T14:23:52;10.02;;;7.10;;